Camp Appalachia, Virginia
Current Conditions -  °F | °C
As of 12:35 AM on Sunday 26 Oct 2014 (Local Time) from KHSP Reporting Station
Overcast Overcast  
Wind Chill: 52°   Ceiling: 1500
Heat Index: 52°   Visibility: 10mi
Dew Point: 48°   Wind: 20mph
Humidity: 85%   Direction: 280°W
Pressure: 29.82"   Gusts: 32mph
Location:  37.7731°N, 80.0632°W
Report Text: KHSP 260435Z AUTO 28017G28KT 10SM BKN015 OVC021 11/09 A2982 RMK AO2 T01110087
Loading
Personal Weather Stations






























Interactive Weather Map
Tropical Storm Tracking
New forecast layout! Learn more

10-Day Weather Forecast

Advertisements
Track Severe Weather on mobile